Terminal Aerodrome Forecast
Issued by NWS Twin Cities, MN

Home | Current Version | Previous Version | Text Only | Print | Product List | Glossary Off
Versions: 1 2 3 4 5 6 7 8 9 10 11 12 13 14 15 16 17 18 19 20 21 22 23 24 25 26 27 28 29 30 31 32 33 34 35 36 37

000
FTUS43 KMPX 272325
TAFMSP
TAF
KMSP 272325Z 2800/2906 19005KT P6SM SCT050 BKN250
     FM280500 19006KT P6SM VCSH BKN050 BKN110
      TEMPO 2806/2809 3SM SHRA BKN030 OVC050
     FM281100 33009G16KT P6SM BKN050
     FM281800 34013G18KT P6SM VCSH SCT025 OVC050
     FM290000 35013G19KT P6SM SCT025 OVC050=

USA.gov is the U.S. government's official web portal to all federal, state and local government web resources and services.